createdAt,value
2019-02-16T00:01:44.567Z,8.13
2019-02-16T00:04:14.329Z,7.93
2019-02-16T00:06:42.193Z,7.77
2019-02-16T00:09:09.790Z,7.67
2019-02-16T00:11:38.052Z,7.47
2019-02-16T00:14:12.671Z,7.60
2019-02-16T00:24:30.005Z,8.33
2019-02-16T00:27:36.688Z,8.53
2019-02-16T00:30:21.324Z,9.00
2019-02-16T00:32:49.389Z,7.97
2019-02-16T00:35:17.092Z,7.70
2019-02-16T00:37:44.692Z,7.53
2019-02-16T00:40:12.468Z,7.90
2019-02-16T00:42:41.273Z,8.00
2019-02-16T00:45:11.312Z,7.43
2019-02-16T00:47:43.701Z,7.97
2019-02-16T00:50:11.522Z,7.60
2019-02-16T00:52:44.871Z,8.13
2019-02-16T00:55:15.030Z,8.00
2019-02-16T00:57:44.485Z,7.80
2019-02-16T01:00:14.977Z,7.83
2019-02-16T01:02:44.204Z,7.80
2019-02-16T01:05:14.582Z,7.73
2019-02-16T01:07:44.628Z,7.87
2019-02-16T01:10:14.060Z,7.67
2019-02-16T01:12:41.650Z,8.30
2019-02-16T01:15:09.570Z,8.37
2019-02-16T01:17:37.272Z,7.40
2019-02-16T01:27:08.803Z,8.13
2019-02-16T01:29:36.488Z,8.47
2019-02-16T01:32:04.094Z,8.60
2019-02-16T01:34:31.733Z,8.50
2019-02-16T01:36:59.327Z,7.97
2019-02-16T01:39:28.164Z,7.70
2019-02-16T01:41:55.970Z,8.00
2019-02-16T01:44:25.730Z,8.00
2019-02-16T01:46:53.679Z,7.93
2019-02-16T01:49:24.234Z,7.73
2019-02-16T01:55:53.816Z,7.87
2019-02-16T01:58:34.891Z,8.47
2019-02-16T02:01:22.089Z,7.63
2019-02-16T02:03:52.760Z,8.97
2019-02-16T02:06:22.112Z,8.53
2019-02-16T02:08:49.710Z,8.40
2019-02-16T02:11:17.862Z,8.37
2019-02-16T02:13:46.586Z,8.63
2019-02-16T02:16:18.383Z,9.07
2019-02-16T02:40:29.657Z,10.17
2019-02-16T02:43:15.408Z,10.03
2019-02-16T02:46:09.716Z,9.80
2019-02-16T02:48:38.936Z,10.30
2019-02-16T02:51:11.903Z,9.87
2019-02-16T02:53:42.601Z,9.57
2019-02-16T02:56:12.921Z,11.23
2019-02-16T02:58:51.502Z,10.27
2019-02-16T03:01:23.628Z,10.00
2019-02-16T03:04:05.902Z,10.07
2019-02-16T03:20:28.270Z,10.07
2019-02-16T03:23:15.764Z,10.20
2019-02-16T03:25:52.951Z,10.17
2019-02-16T03:28:39.366Z,9.77
2019-02-16T03:31:29.872Z,10.03
2019-02-16T03:34:03.584Z,9.67
2019-02-16T03:37:26.970Z,10.37
2019-02-16T03:39:54.955Z,10.07
2019-02-16T03:42:24.621Z,9.80
2019-02-16T03:44:53.673Z,10.30
2019-02-16T03:47:23.594Z,9.77
2019-02-16T03:49:51.888Z,9.83
2019-02-16T03:52:20.816Z,10.70
2019-02-16T04:05:09.935Z,10.83
2019-02-16T04:07:45.635Z,10.23
2019-02-16T04:10:24.387Z,10.37
2019-02-16T04:13:25.000Z,9.43
2019-02-16T04:16:05.986Z,10.70
2019-02-16T04:18:40.019Z,10.83
2019-02-16T04:21:09.588Z,9.30
2019-02-16T04:23:45.353Z,10.87
2019-02-16T04:26:35.587Z,10.93
2019-02-16T04:29:23.886Z,10.37
2019-02-16T04:32:26.674Z,9.57
2019-02-16T04:35:58.684Z,10.60
2019-02-16T04:43:29.984Z,9.63
2019-02-16T04:44:57.271Z,9.47
2019-02-16T04:47:31.584Z,10.47
2019-02-16T04:50:04.729Z,10.57
2019-02-16T04:52:47.149Z,10.57
2019-02-16T05:03:19.152Z,10.30
2019-02-16T05:06:33.376Z,10.37
2019-02-16T05:09:41.370Z,10.60
2019-02-16T05:12:14.631Z,10.20
2019-02-16T05:14:42.246Z,10.60
2019-02-16T05:17:10.739Z,10.40
2019-02-16T05:19:44.386Z,10.27
2019-02-16T05:22:12.032Z,10.37
2019-02-16T05:24:39.661Z,10.70
2019-02-16T05:27:07.301Z,10.47
2019-02-16T05:29:35.299Z,10.90
2019-02-16T05:32:06.154Z,10.57
2019-02-16T05:34:34.796Z,11.03
2019-02-16T05:37:03.653Z,10.53
2019-02-16T05:39:37.872Z,10.30
2019-02-16T05:42:08.449Z,10.40
2019-02-16T05:45:07.554Z,10.27
2019-02-16T05:48:09.263Z,10.17
2019-02-16T05:55:42.457Z,10.60
2019-02-16T05:59:20.381Z,10.73
2019-02-16T06:05:53.700Z,10.60
2019-02-16T06:08:53.018Z,10.63
2019-02-16T06:18:54.217Z,11.33
2019-02-16T06:21:48.952Z,12.17
2019-02-16T06:28:29.930Z,11.73
2019-02-16T06:37:24.197Z,12.17
2019-02-16T06:39:56.649Z,11.87
2019-02-16T06:46:19.220Z,11.83
2019-02-16T06:49:57.124Z,11.63
2019-02-16T06:52:26.567Z,12.77
2019-02-16T06:55:31.608Z,12.67
2019-02-16T06:58:30.992Z,12.63
2019-02-16T07:01:36.807Z,12.13
2019-02-16T07:04:22.193Z,11.40
2019-02-16T07:07:06.378Z,12.40
2019-02-16T07:09:37.845Z,12.27
2019-02-16T07:12:39.462Z,12.30
2019-02-16T07:16:20.427Z,12.20
2019-02-16T07:23:37.363Z,11.70
2019-02-16T07:26:31.371Z,12.47
2019-02-16T07:29:23.991Z,13.23
2019-02-16T07:35:57.869Z,12.00
2019-02-16T07:38:38.822Z,12.80
2019-02-16T07:41:13.527Z,12.07
2019-02-16T07:43:59.149Z,12.37
2019-02-16T07:46:46.565Z,12.63
2019-02-16T07:49:19.172Z,14.43
2019-02-16T07:51:53.012Z,12.80
2019-02-16T07:54:51.376Z,13.10
2019-02-16T07:57:47.842Z,13.27
2019-02-16T08:00:42.019Z,12.87
2019-02-16T08:03:47.692Z,12.73
2019-02-16T08:06:47.518Z,13.17
2019-02-16T08:12:30.027Z,12.50
2019-02-16T08:15:26.381Z,13.83
2019-02-16T08:18:16.361Z,12.83
2019-02-16T08:21:09.402Z,12.63
2019-02-16T08:24:01.186Z,12.37
2019-02-16T08:26:51.718Z,12.50
2019-02-16T08:29:35.885Z,13.33
2019-02-16T08:32:21.652Z,13.00
2019-02-16T08:35:07.434Z,12.10
2019-02-16T08:37:42.084Z,12.37
2019-02-16T08:40:16.310Z,13.83
2019-02-16T08:43:00.616Z,15.37
2019-02-16T08:45:40.495Z,15.83
2019-02-16T08:48:22.278Z,13.90
2019-02-16T08:50:55.799Z,12.83
2019-02-16T08:53:58.153Z,13.10
2019-02-16T08:56:44.461Z,12.60
2019-02-16T08:59:46.534Z,13.47
2019-02-16T09:02:39.722Z,13.90
2019-02-16T09:05:22.092Z,14.37
2019-02-16T09:07:57.327Z,14.00
2019-02-16T09:10:47.419Z,15.70
2019-02-16T09:13:53.084Z,15.10
2019-02-16T09:16:45.942Z,15.90
2019-02-16T09:19:23.064Z,14.33
2019-02-16T09:25:18.187Z,13.80
2019-02-16T09:28:01.435Z,14.67
2019-02-16T09:30:47.187Z,14.20
2019-02-16T09:33:25.128Z,13.50
2019-02-16T09:36:01.751Z,13.63
2019-02-16T09:38:49.329Z,13.40
2019-02-16T09:41:24.312Z,13.70
2019-02-16T09:44:08.947Z,14.73
2019-02-16T09:46:56.974Z,14.23
2019-02-16T09:49:44.044Z,14.13
2019-02-16T09:52:23.344Z,14.77
2019-02-16T09:54:59.512Z,14.73
2019-02-16T09:57:53.941Z,15.03
2019-02-16T10:00:46.974Z,14.60
2019-02-16T10:03:31.637Z,14.60
2019-02-16T10:06:30.651Z,14.57
2019-02-16T10:09:13.089Z,14.90
2019-02-16T10:12:05.075Z,14.23
2019-02-16T10:15:01.944Z,13.87
2019-02-16T10:18:16.692Z,14.30
2019-02-16T10:20:52.821Z,13.23
2019-02-16T10:23:48.931Z,13.73
2019-02-16T10:26:42.185Z,14.30
2019-02-16T10:29:28.274Z,13.73
2019-02-16T10:32:14.539Z,15.07
2019-02-16T10:35:07.305Z,14.23
2019-02-16T10:38:03.712Z,14.73
2019-02-16T10:41:01.612Z,14.93
2019-02-16T10:43:43.358Z,14.80
2019-02-16T10:46:30.883Z,13.90
2019-02-16T10:49:33.033Z,13.53
2019-02-16T10:52:23.089Z,13.93
2019-02-16T10:55:07.551Z,14.60
2019-02-16T10:57:43.330Z,14.97
2019-02-16T11:00:30.585Z,14.07
2019-02-16T11:03:25.501Z,14.53
2019-02-16T11:06:02.676Z,14.70
2019-02-16T11:08:58.877Z,14.93
2019-02-16T11:11:42.826Z,14.50
2019-02-16T11:14:32.944Z,13.57
2019-02-16T11:17:22.298Z,13.90
2019-02-16T11:20:02.127Z,13.27
2019-02-16T11:22:40.457Z,13.90
2019-02-16T11:25:26.470Z,13.60
2019-02-16T11:28:13.670Z,14.27
2019-02-16T11:30:48.679Z,13.73
2019-02-16T11:33:44.713Z,14.90
2019-02-16T11:36:29.479Z,13.60
2019-02-16T11:39:12.098Z,14.20
2019-02-16T11:41:53.361Z,15.13
2019-02-16T11:44:39.110Z,14.83
2019-02-16T11:47:37.856Z,15.07
2019-02-16T11:50:23.261Z,14.53
2019-02-16T11:53:13.320Z,14.47
2019-02-16T11:55:52.007Z,14.27
2019-02-16T11:58:53.693Z,14.07
2019-02-16T12:01:52.541Z,15.23
2019-02-16T12:04:40.946Z,14.27
2019-02-16T12:07:28.346Z,14.80
2019-02-16T12:10:06.159Z,15.33
2019-02-16T12:12:52.412Z,14.87
2019-02-16T12:15:59.955Z,14.83
2019-02-16T12:18:59.162Z,15.57
2019-02-16T12:21:44.913Z,15.07
2019-02-16T12:25:05.744Z,15.23
2019-02-16T12:27:44.231Z,15.40
2019-02-16T12:30:46.719Z,15.20
2019-02-16T12:33:39.264Z,15.13
2019-02-16T12:36:26.337Z,14.23
2019-02-16T12:39:12.360Z,15.50
2019-02-16T12:41:50.394Z,15.07
2019-02-16T12:44:35.620Z,14.73
2019-02-16T12:47:21.555Z,14.97
2019-02-16T12:50:05.304Z,14.53
2019-02-16T12:53:08.364Z,14.00
2019-02-16T12:55:55.453Z,14.77
2019-02-16T12:58:37.332Z,13.63
2019-02-16T13:01:47.878Z,14.53
2019-02-16T13:04:33.692Z,13.63
2019-02-16T13:07:16.072Z,13.23
2019-02-16T13:09:53.388Z,13.60
2019-02-16T13:12:49.777Z,12.90
2019-02-16T13:15:39.688Z,12.80
2019-02-16T13:18:21.172Z,13.20
2019-02-16T13:21:20.451Z,12.57
2019-02-16T13:23:53.419Z,13.20
2019-02-16T13:26:52.718Z,12.10
2019-02-16T13:29:37.183Z,13.67
2019-02-16T13:32:24.247Z,13.17
2019-02-16T13:35:07.272Z,13.57
2019-02-16T13:37:57.689Z,13.70
2019-02-16T13:40:53.662Z,13.00
2019-02-16T13:43:44.671Z,12.73
2019-02-16T13:46:20.130Z,11.40
2019-02-16T13:49:01.797Z,12.00
2019-02-16T13:51:47.405Z,12.20
2019-02-16T13:54:19.763Z,11.50
2019-02-16T13:57:09.484Z,13.17
2019-02-16T13:59:47.764Z,11.77
2019-02-16T14:02:40.893Z,12.03
2019-02-16T14:05:28.343Z,12.97
2019-02-16T14:08:29.211Z,12.20
2019-02-16T14:11:08.709Z,11.83
2019-02-16T14:13:56.475Z,12.20
2019-02-16T14:16:52.457Z,12.53
2019-02-16T14:19:20.053Z,12.60
2019-02-16T14:21:47.599Z,13.13
2019-02-16T14:24:17.291Z,13.03
2019-02-16T14:26:48.385Z,12.67
2019-02-16T14:29:18.101Z,11.60
2019-02-16T14:31:45.723Z,11.50
2019-02-16T14:34:16.237Z,12.50
2019-02-16T14:36:53.129Z,11.80
2019-02-16T14:39:30.815Z,11.17
2019-02-16T14:42:02.899Z,11.13
2019-02-16T14:44:32.736Z,11.30
2019-02-16T14:47:00.432Z,10.83
2019-02-16T14:49:28.062Z,11.40
2019-02-16T14:51:58.269Z,11.30
2019-02-16T14:54:30.672Z,11.07
2019-02-16T14:57:04.863Z,11.20
2019-02-16T14:59:34.793Z,10.73
2019-02-16T15:02:03.453Z,10.67
2019-02-16T15:04:36.791Z,11.80
2019-02-16T15:07:06.749Z,11.33
2019-02-16T15:09:34.325Z,11.90
2019-02-16T15:12:02.172Z,11.30
2019-02-16T15:14:35.604Z,11.80
2019-02-16T15:17:03.198Z,11.57
2019-02-16T15:19:31.019Z,11.63
2019-02-16T15:21:58.645Z,12.13
2019-02-16T15:24:27.508Z,15.70
2019-02-16T15:26:57.426Z,12.80
2019-02-16T15:29:26.239Z,11.93
2019-02-16T15:31:56.077Z,10.67
2019-02-16T15:34:23.842Z,11.33
2019-02-16T15:36:54.238Z,10.67
2019-02-16T15:39:27.759Z,10.80
2019-02-16T15:41:55.335Z,10.70
2019-02-16T15:44:23.035Z,11.33
2019-02-16T15:47:10.526Z,10.17
2019-02-16T15:49:38.178Z,10.63
2019-02-16T15:52:06.033Z,10.67
2019-02-16T15:54:44.350Z,10.70
2019-02-16T15:57:16.961Z,10.17
2019-02-16T15:59:45.861Z,10.50
2019-02-16T16:02:13.444Z,10.57
2019-02-16T16:04:48.514Z,9.97
2019-02-16T16:07:17.338Z,10.57
2019-02-16T16:10:24.339Z,10.33
2019-02-16T16:13:11.562Z,10.77
2019-02-16T16:15:57.540Z,10.07
2019-02-16T16:18:50.610Z,10.47
2019-02-16T16:21:43.904Z,10.47
2019-02-16T16:24:29.710Z,10.37
2019-02-16T16:27:27.586Z,9.97
2019-02-16T16:30:34.923Z,11.27
2019-02-16T16:33:37.994Z,10.37
2019-02-16T16:39:51.211Z,11.00
2019-02-16T16:42:37.711Z,10.17
2019-02-16T16:45:27.413Z,10.27
2019-02-16T16:48:11.121Z,10.07
2019-02-16T16:51:07.208Z,10.43
2019-02-16T16:53:47.544Z,11.10
2019-02-16T16:56:36.173Z,10.53
2019-02-16T16:59:21.554Z,10.87
2019-02-16T17:02:27.004Z,11.70
2019-02-16T17:05:15.775Z,10.83
2019-02-16T17:08:08.961Z,11.50
2019-02-16T17:10:45.624Z,10.47
2019-02-16T17:13:32.300Z,10.17
2019-02-16T17:16:34.597Z,10.60
2019-02-16T17:19:21.948Z,10.33
2019-02-16T17:22:17.573Z,9.63
2019-02-16T17:24:50.336Z,10.37
2019-02-16T17:27:40.956Z,10.73
2019-02-16T17:30:25.805Z,10.77
2019-02-16T17:33:19.068Z,10.47
2019-02-16T17:36:09.268Z,11.70
2019-02-16T17:39:13.998Z,11.57
2019-02-16T17:42:13.167Z,11.20
2019-02-16T17:44:50.666Z,11.67
2019-02-16T17:47:46.867Z,13.03
2019-02-16T17:50:46.329Z,12.93
2019-02-16T17:53:29.203Z,13.00
2019-02-16T17:56:26.670Z,13.47
2019-02-16T17:59:11.451Z,13.13
2019-02-16T18:02:08.129Z,13.97
2019-02-16T18:04:41.982Z,12.97
2019-02-16T18:07:42.327Z,12.80
2019-02-16T18:10:19.813Z,11.70
2019-02-16T18:13:12.785Z,12.77
2019-02-16T18:15:52.740Z,13.07
2019-02-16T18:18:42.471Z,14.60
2019-02-16T18:21:25.519Z,13.00
2019-02-16T18:24:18.607Z,11.23
2019-02-16T18:26:59.202Z,12.03
2019-02-16T18:29:52.303Z,11.50
2019-02-16T18:32:45.087Z,11.40
2019-02-16T18:35:29.577Z,11.73
2019-02-16T18:38:14.873Z,12.87
2019-02-16T18:41:11.174Z,13.17
2019-02-16T18:43:50.746Z,12.70
2019-02-16T18:46:37.930Z,12.47
2019-02-16T18:49:31.063Z,12.47
2019-02-16T18:52:17.000Z,12.67
2019-02-16T18:55:10.208Z,14.30
2019-02-16T18:57:41.865Z,14.70
2019-02-16T19:00:32.344Z,14.27
2019-02-16T19:03:28.029Z,15.63
2019-02-16T19:06:15.270Z,17.00
2019-02-16T19:09:02.515Z,15.77
2019-02-16T19:11:50.741Z,17.20
2019-02-16T19:14:34.779Z,17.27
2019-02-16T19:17:13.507Z,17.90
2019-02-16T19:20:12.650Z,16.57
2019-02-16T19:22:59.880Z,16.20
2019-02-16T19:25:53.039Z,14.83
2019-02-16T19:28:34.184Z,14.80
2019-02-16T19:31:17.841Z,15.57
2019-02-16T19:34:07.878Z,18.33
2019-02-16T19:36:55.103Z,15.57
2019-02-16T19:39:29.741Z,14.90
2019-02-16T19:42:17.009Z,16.40
2019-02-16T19:45:02.591Z,16.00
2019-02-16T19:47:48.579Z,17.10
2019-02-16T19:50:35.701Z,17.47
2019-02-16T19:53:31.803Z,19.47
2019-02-16T19:56:09.261Z,19.13
2019-02-16T19:59:08.035Z,19.97
2019-02-16T20:01:53.771Z,21.20
2019-02-16T20:04:45.381Z,23.13
2019-02-16T20:07:34.029Z,21.00
2019-02-16T20:10:30.072Z,20.53
2019-02-16T20:13:20.217Z,21.97
2019-02-16T20:15:58.993Z,21.63
2019-02-16T20:18:33.672Z,20.13
2019-02-16T20:21:39.102Z,18.97
2019-02-16T20:24:25.606Z,20.27
2019-02-16T20:27:07.797Z,19.60
2019-02-16T20:30:01.139Z,18.10
2019-02-16T20:32:49.942Z,18.07
2019-02-16T20:35:37.071Z,17.87
2019-02-16T20:38:16.936Z,17.57
2019-02-16T20:41:06.859Z,17.30
2019-02-16T20:44:11.930Z,17.00
2019-02-16T20:47:01.744Z,18.10
2019-02-16T20:49:47.288Z,16.03
2019-02-16T20:52:41.073Z,17.87
2019-02-16T20:55:24.535Z,16.20
2019-02-16T20:58:34.159Z,17.97
2019-02-16T21:01:31.519Z,17.67
2019-02-16T21:04:20.886Z,17.90
2019-02-16T21:07:19.850Z,18.20
2019-02-16T21:10:33.480Z,16.77
2019-02-16T21:13:37.910Z,16.80
2019-02-16T21:16:24.180Z,16.03
2019-02-16T21:19:23.155Z,15.63
2019-02-16T21:22:28.197Z,16.20
2019-02-16T21:25:15.774Z,16.63
2019-02-16T21:28:15.030Z,16.50
2019-02-16T21:31:18.216Z,16.60
2019-02-16T21:34:15.266Z,19.20
2019-02-16T21:36:58.804Z,20.57
2019-02-16T21:39:46.439Z,19.73
2019-02-16T21:42:51.284Z,21.90
2019-02-16T21:45:39.612Z,22.67
2019-02-16T21:48:38.850Z,20.20
2019-02-16T21:51:44.868Z,22.00
2019-02-16T21:54:51.131Z,24.13
2019-02-16T21:57:45.426Z,24.13
2019-02-16T22:00:51.039Z,23.67
2019-02-16T22:03:45.473Z,24.03
2019-02-16T22:06:56.052Z,25.27
2019-02-16T22:10:03.969Z,24.63
2019-02-16T22:13:06.005Z,20.73
2019-02-16T22:15:47.135Z,21.60
2019-02-16T22:18:25.437Z,21.57
2019-02-16T22:21:08.129Z,20.30
2019-02-16T22:23:56.147Z,19.90
2019-02-16T22:26:48.688Z,18.70
2019-02-16T22:29:29.405Z,17.73
2019-02-16T22:32:06.538Z,18.10
2019-02-16T22:34:56.439Z,17.53
2019-02-16T22:37:46.951Z,15.70
2019-02-16T22:40:25.047Z,16.43
2019-02-16T22:42:54.892Z,16.00
2019-02-16T22:45:29.645Z,17.50
2019-02-16T22:48:17.973Z,15.50
2019-02-16T22:51:00.425Z,16.47
2019-02-16T22:53:49.211Z,17.47
2019-02-16T22:56:29.553Z,17.13
2019-02-16T22:59:16.933Z,17.37
2019-02-16T23:02:08.634Z,18.67
2019-02-16T23:05:14.680Z,18.27
2019-02-16T23:07:56.868Z,18.60
2019-02-16T23:10:38.061Z,19.57
2019-02-16T23:13:43.410Z,18.63
2019-02-16T23:16:35.013Z,20.30
2019-02-16T23:19:26.375Z,18.77
2019-02-16T23:23:05.611Z,19.47
2019-02-16T23:26:00.727Z,18.93
2019-02-16T23:36:08.565Z,18.10
2019-02-16T23:39:12.556Z,18.30
2019-02-16T23:42:44.226Z,18.17
2019-02-16T23:48:51.442Z,19.13
2019-02-16T23:51:53.488Z,18.77
2019-02-16T23:55:08.052Z,18.90
2019-02-16T23:57:52.490Z,19.03
